createdAt,value
2023-03-28T00:02:51.030Z,98690.76
2023-03-28T00:07:54.502Z,98685.81
2023-03-28T00:12:57.775Z,98687.05
2023-03-28T00:18:01.464Z,98685.50
2023-03-28T00:23:05.525Z,98687.75
2023-03-28T00:28:09.655Z,98679.16
2023-03-28T00:33:12.892Z,98673.45
2023-03-28T00:38:16.023Z,98675.23
2023-03-28T00:43:49.411Z,98674.40
2023-03-28T00:48:56.766Z,98679.35
2023-03-28T00:54:08.075Z,98687.69
2023-03-28T00:59:19.426Z,98693.67
2023-03-28T01:04:27.514Z,98701.17
2023-03-28T01:09:31.838Z,98697.05
2023-03-28T01:14:39.385Z,98693.50
2023-03-28T01:20:28.928Z,98696.65
2023-03-28T01:26:18.481Z,98700.02
2023-03-28T01:31:31.099Z,98694.21
2023-03-28T01:37:38.951Z,98691.65
2023-03-28T01:42:53.496Z,98688.26
2023-03-28T01:48:29.810Z,98692.18
2023-03-28T01:53:40.144Z,98690.82
2023-03-28T01:58:48.802Z,98691.39
2023-03-28T02:04:20.733Z,98699.36
2023-03-28T02:09:51.061Z,98702.46
2023-03-28T02:15:14.065Z,98698.36
2023-03-28T02:20:58.360Z,98697.82
2023-03-28T02:26:12.644Z,98696.20
2023-03-28T02:31:39.019Z,98691.40
2023-03-28T02:37:20.034Z,98689.95
2023-03-28T02:42:28.900Z,98681.56
2023-03-28T02:48:03.788Z,98676.62
2023-03-28T02:53:27.348Z,98680.02
2023-03-28T02:59:06.886Z,98674.79
2023-03-28T03:04:13.720Z,98673.73
2023-03-28T03:09:17.928Z,98680.46
2023-03-28T03:14:21.543Z,98681.54
2023-03-28T03:19:26.539Z,98683.65
2023-03-28T03:24:29.942Z,98680.08
2023-03-28T03:29:38.432Z,98683.38
2023-03-28T03:34:43.788Z,98684.55
2023-03-28T03:39:47.382Z,98674.25
2023-03-28T03:44:55.334Z,98677.02
2023-03-28T03:50:00.256Z,98668.06
2023-03-28T03:55:04.664Z,98669.02
2023-03-28T04:00:12.334Z,98665.36
2023-03-28T04:05:24.805Z,98660.41
2023-03-28T04:10:39.288Z,98662.83
2023-03-28T04:15:42.832Z,98672.68
2023-03-28T04:21:02.020Z,98669.48
2023-03-28T04:26:26.092Z,98677.23
2023-03-28T04:31:41.778Z,98678.89
2023-03-28T04:37:28.025Z,98676.39
2023-03-28T04:42:32.853Z,98677.52
2023-03-28T04:47:46.886Z,98669.10
2023-03-28T04:52:54.992Z,98674.52
2023-03-28T04:57:59.028Z,98671.77
2023-03-28T05:03:06.829Z,98674.16
2023-03-28T05:08:18.320Z,98680.54
2023-03-28T05:13:22.198Z,98680.64
2023-03-28T05:18:36.801Z,98682.05
2023-03-28T05:23:40.746Z,98685.56
2023-03-28T05:28:52.803Z,98685.31
2023-03-28T05:33:56.555Z,98678.95
2023-03-28T05:39:13.481Z,98670.80
2023-03-28T05:44:18.773Z,98675.52
2023-03-28T05:49:42.196Z,98671.94
2023-03-28T05:54:51.724Z,98675.85
2023-03-28T05:59:57.496Z,98689.61
2023-03-28T06:05:00.993Z,98698.69
2023-03-28T06:10:07.536Z,98701.20
2023-03-28T06:15:11.855Z,98699.75
2023-03-28T06:20:16.253Z,98706.83
2023-03-28T06:25:21.973Z,98704.27
2023-03-28T06:30:26.222Z,98707.79
2023-03-28T06:35:30.074Z,98715.25
2023-03-28T06:40:33.895Z,98720.64
2023-03-28T06:45:37.204Z,98723.16
2023-03-28T06:50:52.426Z,98721.30
2023-03-28T06:55:58.244Z,98724.25
2023-03-28T07:01:02.619Z,98727.45
2023-03-28T07:06:28.375Z,98731.88
2023-03-28T07:11:31.906Z,98730.05
2023-03-28T07:16:36.627Z,98730.52
2023-03-28T07:21:40.093Z,98730.61
2023-03-28T07:26:44.785Z,98739.59
2023-03-28T07:31:48.262Z,98755.30
2023-03-28T07:36:52.438Z,98751.67
2023-03-28T07:42:14.946Z,98749.60
2023-03-28T07:47:20.546Z,98755.64
2023-03-28T07:52:24.125Z,98767.14
2023-03-28T07:57:28.024Z,98770.98
2023-03-28T08:02:35.474Z,98771.20
2023-03-28T08:07:42.471Z,98773.90
2023-03-28T08:12:46.309Z,98767.55
2023-03-28T08:17:49.751Z,98803.80
2023-03-28T08:22:54.109Z,98828.96
2023-03-28T08:28:18.242Z,98824.98
2023-03-28T08:33:21.756Z,98831.73
2023-03-28T08:38:25.254Z,98832.36
2023-03-28T08:43:31.563Z,98836.14
2023-03-28T08:48:43.693Z,98846.61
2023-03-28T08:54:15.678Z,98850.52
2023-03-28T08:59:57.110Z,98866.20
2023-03-28T09:05:17.857Z,98865.64
2023-03-28T09:10:46.169Z,98864.73
2023-03-28T09:16:25.988Z,98865.50
2023-03-28T09:22:12.393Z,98890.81
2023-03-28T09:27:31.843Z,98908.40
2023-03-28T09:32:39.785Z,98921.75
2023-03-28T09:37:54.721Z,98932.81
2023-03-28T09:43:01.149Z,98943.75
2023-03-28T09:48:26.206Z,98949.55
2023-03-28T09:53:33.390Z,98947.88
2023-03-28T09:58:57.781Z,98949.16
2023-03-28T10:04:29.550Z,98952.75
2023-03-28T10:09:57.200Z,98950.48
2023-03-28T10:15:01.304Z,98952.61
2023-03-28T10:20:24.542Z,98962.66
2023-03-28T10:25:43.337Z,98964.27
2023-03-28T10:31:00.056Z,98964.30
2023-03-28T10:36:12.035Z,98967.08
2023-03-28T10:41:29.119Z,98979.71
2023-03-28T10:46:54.346Z,98985.14
2023-03-28T10:52:37.070Z,98997.79
2023-03-28T10:57:54.183Z,98999.86
2023-03-28T11:03:20.714Z,99014.90
2023-03-28T11:08:33.758Z,99023.02
2023-03-28T11:14:20.114Z,99009.96
2023-03-28T11:19:53.905Z,99003.11
2023-03-28T11:25:37.072Z,99007.87
2023-03-28T11:31:20.885Z,99017.46
2023-03-28T11:36:55.737Z,99008.79
2023-03-28T11:42:04.923Z,99001.71
2023-03-28T11:47:41.504Z,99006.36
2023-03-28T11:53:34.967Z,99008.14
2023-03-28T11:58:46.684Z,99011.30
2023-03-28T12:03:59.221Z,99000.16
2023-03-28T12:09:18.130Z,99001.98
2023-03-28T12:14:27.678Z,99005.35
2023-03-28T12:19:39.134Z,99002.72
2023-03-28T12:24:54.047Z,99000.88
2023-03-28T12:30:26.154Z,98998.33
2023-03-28T12:35:39.965Z,99005.98
2023-03-28T12:40:56.330Z,99017.30
2023-03-28T12:46:05.688Z,99008.92
2023-03-28T12:51:16.978Z,99010.58
2023-03-28T12:56:22.157Z,99016.37
2023-03-28T13:01:49.322Z,99028.05
2023-03-28T13:07:37.265Z,99048.19
2023-03-28T13:13:13.117Z,99073.02
2023-03-28T13:18:22.260Z,99091.55
2023-03-28T13:23:31.498Z,99076.13
2023-03-28T13:28:51.788Z,99073.61
2023-03-28T13:34:02.005Z,99069.69
2023-03-28T13:39:09.570Z,99062.74
2023-03-28T13:44:29.904Z,99065.61
2023-03-28T13:49:52.622Z,99068.89
2023-03-28T13:55:23.660Z,99100.34
2023-03-28T14:00:29.058Z,99134.48
2023-03-28T14:05:34.192Z,99162.65
2023-03-28T14:10:40.932Z,99174.31
2023-03-28T14:15:55.588Z,99176.17
2023-03-28T14:21:00.613Z,99157.19
2023-03-28T14:26:15.930Z,99145.73
2023-03-28T14:31:38.719Z,99156.66
2023-03-28T14:37:07.457Z,99165.62
2023-03-28T14:42:17.848Z,99166.31
2023-03-28T14:47:28.520Z,99159.76
2023-03-28T14:52:41.196Z,99164.02
2023-03-28T14:57:48.142Z,99162.87
2023-03-28T15:02:54.935Z,99168.73
2023-03-28T15:08:03.346Z,99164.40
2023-03-28T15:13:43.639Z,99157.00
2023-03-28T15:18:59.201Z,99161.12
2023-03-28T15:24:04.411Z,99173.02
2023-03-28T15:29:09.313Z,99184.82
2023-03-28T15:34:20.725Z,99195.89
2023-03-28T15:39:35.490Z,99208.52
2023-03-28T15:44:41.557Z,99224.34
2023-03-28T15:49:45.650Z,99219.84
2023-03-28T15:54:52.647Z,99225.29
2023-03-28T15:59:58.522Z,99232.83
2023-03-28T16:05:10.707Z,99235.60
2023-03-28T16:10:17.802Z,99242.10
2023-03-28T16:15:48.061Z,99245.40
2023-03-28T16:20:59.832Z,99255.95
2023-03-28T16:26:04.616Z,99273.14
2023-03-28T16:31:13.085Z,99285.10
2023-03-28T16:36:16.474Z,99287.55
2023-03-28T16:41:20.434Z,99289.77
2023-03-28T16:46:23.865Z,99285.95
2023-03-28T16:51:39.911Z,99290.14
2023-03-28T16:56:43.941Z,99303.72
2023-03-28T17:01:47.896Z,99317.95
2023-03-28T17:06:53.049Z,99329.92
2023-03-28T17:11:56.884Z,99334.48
2023-03-28T17:17:00.373Z,99362.59
2023-03-28T17:22:03.990Z,99389.64
2023-03-28T17:27:07.423Z,99389.09
2023-03-28T17:32:10.785Z,99396.35
2023-03-28T17:37:14.370Z,99405.44
2023-03-28T17:42:17.760Z,99412.02
2023-03-28T17:47:21.167Z,99419.55
2023-03-28T17:52:24.835Z,99429.04
2023-03-28T17:57:28.366Z,99436.65
2023-03-28T18:02:32.104Z,99444.33
2023-03-28T18:07:43.521Z,99457.98
2023-03-28T18:12:47.794Z,99466.22
2023-03-28T18:17:51.460Z,99474.17
2023-03-28T18:22:55.607Z,99481.96
2023-03-28T18:27:58.869Z,99485.88
2023-03-28T18:33:04.056Z,99495.23
2023-03-28T18:38:07.418Z,99508.67
2023-03-28T18:43:11.143Z,99511.48
2023-03-28T18:48:18.697Z,99517.77
2023-03-28T18:53:22.778Z,99537.77
2023-03-28T18:58:29.123Z,99546.01
2023-03-28T19:03:45.123Z,99544.67
2023-03-28T19:08:48.817Z,99542.66
2023-03-28T19:13:56.744Z,99543.64
2023-03-28T19:19:07.511Z,99540.92
2023-03-28T19:24:10.871Z,99548.40
2023-03-28T19:29:27.599Z,99550.64
2023-03-28T19:34:31.519Z,99551.70
2023-03-28T19:39:35.295Z,99551.84
2023-03-28T19:44:39.616Z,99556.41
2023-03-28T19:49:43.247Z,99557.60
2023-03-28T19:54:46.562Z,99560.35
2023-03-28T19:59:49.953Z,99563.58
2023-03-28T20:04:53.672Z,99563.13
2023-03-28T20:09:57.141Z,99563.48
2023-03-28T20:15:01.014Z,99565.61
2023-03-28T20:20:05.250Z,99563.27
2023-03-28T20:25:09.263Z,99561.81
2023-03-28T20:30:12.942Z,99565.40
2023-03-28T20:35:16.583Z,99567.55
2023-03-28T20:40:21.353Z,99562.77
2023-03-28T20:45:25.799Z,99556.73
2023-03-28T20:50:39.044Z,99558.30
2023-03-28T20:55:43.685Z,99566.11
2023-03-28T21:00:47.918Z,99569.59
2023-03-28T21:05:51.568Z,99570.88
2023-03-28T21:10:54.963Z,99574.77
2023-03-28T21:15:58.335Z,99576.95
2023-03-28T21:21:02.316Z,99582.84
2023-03-28T21:26:08.218Z,99585.25
2023-03-28T21:31:26.065Z,99591.13
2023-03-28T21:36:30.677Z,99593.37
2023-03-28T21:41:38.088Z,99597.09
2023-03-28T21:46:41.771Z,99594.64
2023-03-28T21:51:45.991Z,99592.44
2023-03-28T21:56:52.242Z,99595.63
2023-03-28T22:01:56.104Z,99597.65
2023-03-28T22:06:59.624Z,99599.79
2023-03-28T22:12:05.921Z,99598.08
2023-03-28T22:17:10.140Z,99604.37
2023-03-28T22:22:13.736Z,99605.63
2023-03-28T22:27:18.211Z,99608.88
2023-03-28T22:32:21.865Z,99609.45
2023-03-28T22:38:10.187Z,99609.91
2023-03-28T22:43:13.783Z,99607.08
2023-03-28T22:48:17.497Z,99609.76
2023-03-28T22:53:23.867Z,99610.75
2023-03-28T22:58:27.778Z,99613.73
2023-03-28T23:03:32.711Z,99617.94
2023-03-28T23:08:36.201Z,99621.90
2023-03-28T23:13:39.601Z,99622.39
2023-03-28T23:18:43.442Z,99625.15
2023-03-28T23:23:47.657Z,99625.48
2023-03-28T23:28:51.000Z,99630.95
2023-03-28T23:33:54.156Z,99624.80
2023-03-28T23:38:57.809Z,99629.27
2023-03-28T23:44:01.327Z,99637.65
2023-03-28T23:49:04.733Z,99640.96
2023-03-28T23:54:08.091Z,99644.16
2023-03-28T23:59:12.065Z,99644.16
